Terminal Aerodrome Forecast
Issued by NWS Northern Indiana

Home | Current Version | Previous Version | Text Only | Print | Product List | Glossary On
Versions: 1 2 3 4 5 6 7 8 9 10 11 12 13 14 15
391
FTUS43 KIWX 091720
TAFFWA
TAF
KFWA 091720Z 0918/1018 27015G22KT 6SM -SHSN OVC015
     FM100200 28014KT 4SM -SHSN OVC015
      TEMPO 1002/1006 2SM -SHSN=

USA.gov is the U.S. government's official web portal to all federal, state and local government web resources and services.